Flight Track Log - Related Links

Times and Time Zones

All times are in EDT time to prevent confusion due to time zone crossing. See the THY2470 flight status page for this flight to view local times or setup timezone preferences in your user account.

Time Position Orientation Groundspeed Altitude Reporting Facility
EDT Latitude Longitude Course Direction KTS MPH feet Rate Location/Type
Wed 01:52:00 PM 40.2203 30.1497 126° Southeast  Level Estimated
Wed 01:53:00 PM 40.1508 30.2690 127° Southeast  Level Estimated
Wed 01:54:00 PM 40.0812 30.3880 127° Southeast  Level Estimated
Wed 01:55:00 PM 40.0114 30.5068 127° Southeast  Level Estimated
Wed 01:56:00 PM 39.9415 30.6254 128° Southeast  Level Estimated
Wed 01:57:00 PM 39.8715 30.7437 128° Southeast  Level Estimated
Wed 01:58:00 PM 39.8014 30.8618 128° Southeast  Level Estimated
Wed 01:59:00 PM 39.7311 30.9797 128° Southeast  Level Estimated
Wed 02:00:00 PM 39.6608 31.0972 128° Southeast  Level Estimated
Wed 02:01:00 PM 39.5903 31.2146 128° Southeast  Level Estimated
Wed 02:02:00 PM 39.5197 31.3317 128° Southeast  Level Estimated
Wed 02:03:00 PM 39.4489 31.4486 128° Southeast  Level Estimated
Wed 02:04:00 PM 39.3781 31.5653 128° Southeast  Level Estimated
Wed 02:05:00 PM 39.3072 31.6817 128° Southeast  Level Estimated
Wed 02:06:00 PM 39.2361 31.7979 128° Southeast  Level Estimated
Wed 02:07:00 PM 39.1649 31.9138 128° Southeast  Level Estimated
Wed 02:08:00 PM 39.0936 32.0295 128° Southeast  Level Estimated
Wed 02:09:00 PM 39.0222 32.1450 128° Southeast  Level Estimated
Wed 02:10:00 PM 38.9506 32.2602 129° Southeast  Level Estimated
Wed 02:11:00 PM 38.8790 32.3752 129° Southeast  Level Estimated
Wed 02:12:00 PM 38.8073 32.4900 129° Southeast  Level Estimated
Wed 02:13:00 PM 38.7354 32.6045 129° Southeast  Level Estimated
Wed 02:14:00 PM 38.6634 32.7188 129° Southeast  Level Estimated
Wed 02:15:00 PM 38.5913 32.8329 129° Southeast  Level Estimated
Wed 02:16:00 PM 38.5191 32.9468 129° Southeast  Level Estimated
Wed 02:17:00 PM 38.4468 33.0604 129° Southeast  Level Estimated
Wed 02:18:00 PM 38.3744 33.1738 129° Southeast  Level Estimated
Wed 02:19:00 PM 38.3019 33.2870 129° Southeast  Level Estimated
Wed 02:20:00 PM 38.2292 33.3999 129° Southeast  Level Estimated
Wed 02:21:00 PM 38.1565 33.5126 129° Southeast  Level Estimated
Wed 02:22:00 PM 38.0836 33.6251 129° Southeast  Level Estimated
Wed 02:23:00 PM 38.0107 33.7374 129° Southeast  Level Estimated
Wed 02:24:00 PM 37.9376 33.8494 130° Southeast  Level Estimated
Wed 02:25:00 PM 37.8644 33.9613 130° Southeast  Level Estimated
Wed 02:26:00 PM 37.7912 34.0729 130° Southeast  Level Estimated
Wed 02:27:00 PM 37.7178 34.1842 130° Southeast  Level Estimated
Wed 02:28:00 PM 37.6443 34.2954 130° Southeast  Level Estimated
Wed 02:29:00 PM 37.5707 34.4063 130° Southeast  Level Estimated
Wed 02:30:00 PM 37.4970 34.5171 130° Southeast  Level Estimated
Wed 02:31:00 PM 37.4232 34.6276 130° Southeast  Level Estimated
Wed 02:32:00 PM 37.3493 34.7379 130° Southeast  Level Estimated
Wed 02:33:00 PM 37.2753 34.8479 130° Southeast  Level Estimated
Wed 02:34:00 PM 37.2012 34.9578 130° Southeast  Level Estimated
Wed 02:35:00 PM 37.1270 35.0674 130° Southeast  Level Estimated
Wed 02:36:00 PM 37.0527 35.1768 130° Southeast  Level Estimated
Wed 02:37:00 PM 36.9822 35.2804 130° Southeast  Level Estimated
Wed 02:38:00 PM 36.9822 35.2804 202° Southwest  Level Estimated
Wed 02:39:00 PM 36.9822 35.2804 202° Southwest  Level Estimated
Wed 02:40:00 PM 36.9822 35.2804 202° Southwest  Level Estimated
Wed 02:41:00 PM 36.9822 35.2804 202° Southwest  Level Estimated
Wed 02:42:00 PM 36.9822 35.2804 202° Southwest  Level Estimated
Wed 02:43:00 PM 36.9822 35.2804 202° Southwest  Level Estimated
Wed 02:44:00 PM 36.9822 35.2804 202° Southwest  Level Estimated
Wed 02:45:00 PM 36.9822 35.2804 202° Southwest  Level Estimated
Wed 02:46:00 PM 36.9822 35.2804 202° Southwest  Level Estimated
Wed 02:47:00 PM 36.9822 35.2804 202° Southwest  Level Estimated
Wed 02:48:00 PM 36.9822 35.2804 202° Southwest  Level Estimated
Wed 02:49:00 PM 36.9822 35.2804 202° Southwest  Level Estimated
Wed 02:50:00 PM 36.9822 35.2804 202° Southwest  Level Estimated
Wed 02:51:00 PM 36.9822 35.2804 202° Southwest  Level Estimated
Wed 02:52:00 PM 36.9822 35.2804 202° Southwest  Level Estimated
Wed 02:53:00 PM 36.9822 35.2804 202° Southwest  Level Estimated

Login

Don't have an account? Register now (free) for customized features, flight alerts, and more!